Jean De La Valette — 9HA2063 — position and weather

sailwx.info

Track history (hours):
 
Tides and Currents Weather Stations Pressure Air Temp Water Temp Dewpoint Dewpoint Depression Visibility Wind Speed Wind Dir Waves Ship Positions

Jean De La Valette

Last reported at 2018-Jul-20 17:52 UTC. Time now 2018-Jul-20 21:44 UTC.
Position N 36°35' E 014°47'.

Length 107 m; draft 3.4 m.

Type: High speed craft. MMSI: 249898000.

Date/timePositionNaut miles runAvg speedWind from/ knotsBaromVisibWave heightAir tempDewpointWater temp
2018-Jul-20 17:52N 36°35' E 014°47'1232.2
2018-Jul-20 17:30N 36°23' E 014°43'1732.6
2018-Jul-20 17:00N 36°08' E 014°37'16 2.5
2018-Jul-20 10:49N 35°53' E 014°30'0 0.0
2018-Jul-20 09:37N 35°53' E 014°30'0 0.4
2018-Jul-20 09:19N 35°53' E 014°30'618.2
2018-Jul-20 09:00N 35°59' E 014°33'1733.3
2018-Jul-20 08:31N 36°14' E 014°39'1833.3
2018-Jul-20 07:58N 36°31' E 014°46'1 0.6
2018-Jul-20 05:50N 36°32' E 014°46'1532.2
2018-Jul-20 05:22N 36°18' E 014°40'1232.3
2018-Jul-20 05:00N 36°06' E 014°36'14 8.3
2018-Jul-20 03:18N 35°53' E 014°30'1 0.2
2018-Jul-19 21:22N 35°54' E 014°31'1027.1
2018-Jul-19 21:00N 36°03' E 014°34'1529.2
2018-Jul-19 20:30N 36°17' E 014°40'11 3.4
2018-Jul-19 17:17N 36°28' E 014°45'1334.1
2018-Jul-19 16:54N 36°15' E 014°39'1334.1
2018-Jul-19 16:30N 36°02' E 014°34'9 4.4
2018-Jul-19 14:33N 35°54' E 014°31'114.7
2018-Jul-19 14:30N 35°55' E 014°32'3734.9
2018-Jul-19 13:26N 36°30' E 014°46'14 1.5
2018-Jul-19 04:04N 36°17' E 014°40'227.3
2018-Jul-19 04:00N 36°15' E 014°39'1427.5
2018-Jul-19 03:30N 36°02' E 014°35'8 1.4
2018-Jul-18 21:28N 35°54' E 014°31'1225.5
2018-Jul-18 21:00N 36°05' E 014°37'1 0.1
2018-Jul-18 16:58N 36°05' E 014°36'13 7.1
2018-Jul-18 15:07N 35°53' E 014°30'0 0.0
2018-Jul-18 14:55N 35°53' E 014°30'0 0.0
2018-Jul-18 14:25N 35°53' E 014°30'0 0.0
2018-Jul-18 13:13N 35°53' E 014°30'0 0.0
2018-Jul-18 12:55N 35°53' E 014°30'1 0.4
2018-Jul-18 09:26N 35°54' E 014°31'13 1.1
2018-Jul-17 21:10N 36°07' E 014°32'527.8
2018-Jul-17 21:00N 36°12' E 014°32'1428.1
2018-Jul-17 20:30N 36°25' E 014°33'7 2.4
2018-Jul-17 17:37N 36°30' E 014°40'432.3
2018-Jul-17 17:30N 36°27' E 014°37'9 0.8
2018-Jul-17 05:21N 36°18' E 014°39'1131.0
2018-Jul-17 05:00N 36°08' E 014°35'14 1.9
2018-Jul-16 21:20N 35°54' E 014°31'925.6
2018-Jul-16 21:00N 36°02' E 014°35'1529.4
2018-Jul-16 20:29N 36°17' E 014°40'  
2018-Jul-14 04:25N 36°31' E 014°45'1431.6
2018-Jul-14 03:59N 36°18' E 014°40'1731.6
2018-Jul-14 03:27N 36°02' E 014°35'8 1.4
2018-Jul-13 21:22N 35°54' E 014°31'926.4
2018-Jul-13 21:00N 36°03' E 014°35'1529.3
2018-Jul-13 20:29N 36°17' E 014°40'1429.3
2018-Jul-13 20:00N 36°31' E 014°46'1 0.4
2018-Jul-13 17:40N 36°31' E 014°47'532.3
2018-Jul-13 17:30N 36°26' E 014°45'1932.5
2018-Jul-13 16:55N 36°08' E 014°37'15 2.0
2018-Jul-13 09:18N 35°54' E 014°31'825.1
2018-Jul-13 09:00N 36°01' E 014°34'1632.8
2018-Jul-13 08:30N 36°17' E 014°41'13 4.8
2018-Jul-13 05:48N 36°29' E 014°46'1031.1
2018-Jul-13 05:28N 36°19' E 014°42'1531.3
2018-Jul-13 05:00N 36°05' E 014°36'12 1.6
2018-Jul-12 21:21N 35°54' E 014°31'926.5
2018-Jul-12 21:00N 36°03' E 014°35'1529.9
2018-Jul-12 20:30N 36°17' E 014°41'1428.6
2018-Jul-12 20:00N 36°30' E 014°46'4 1.7
2018-Jul-12 17:37N 36°34' E 014°48'1533.3
2018-Jul-12 17:10N 36°20' E 014°42'633.1
2018-Jul-12 16:58N 36°14' E 014°40'1533.3
2018-Jul-12 16:30N 35°59' E 014°34'7 3.3
2018-Jul-12 14:21N 35°53' E 014°30'410.2
2018-Jul-12 14:00N 35°56' E 014°33'1933.7
2018-Jul-12 13:26N 36°15' E 014°40'1534.7
2018-Jul-12 13:00N 36°29' E 014°46'24 2.6
2018-Jul-12 03:28N 36°05' E 014°36'  
Track history (hours):
 
Tides and Currents Weather Stations Pressure Air Temp Water Temp Dewpoint Dewpoint Depression Visibility Wind Speed Wind Dir Waves Ship Positions

Jean De La Valette

Last reported at 2018-Jul-20 17:52 UTC. Time now 2018-Jul-20 21:44 UTC.
Position N 36°35' E 014°47'.

Length 107 m; draft 3.4 m.

Type: High speed craft. MMSI: 249898000.

Date/timePositionNaut miles runAvg speedWind from/ knotsBaromVisibWave heightAir tempDewpointWater temp
2018-Jul-20 17:52N 36°35' E 014°47'1232.2
2018-Jul-20 17:30N 36°23' E 014°43'1732.6
2018-Jul-20 17:00N 36°08' E 014°37'16 2.5
2018-Jul-20 10:49N 35°53' E 014°30'0 0.0
2018-Jul-20 09:37N 35°53' E 014°30'0 0.4
2018-Jul-20 09:19N 35°53' E 014°30'618.2
2018-Jul-20 09:00N 35°59' E 014°33'1733.3
2018-Jul-20 08:31N 36°14' E 014°39'1833.3
2018-Jul-20 07:58N 36°31' E 014°46'1 0.6
2018-Jul-20 05:50N 36°32' E 014°46'1532.2
2018-Jul-20 05:22N 36°18' E 014°40'1232.3
2018-Jul-20 05:00N 36°06' E 014°36'14 8.3
2018-Jul-20 03:18N 35°53' E 014°30'1 0.2
2018-Jul-19 21:22N 35°54' E 014°31'1027.1
2018-Jul-19 21:00N 36°03' E 014°34'1529.2
2018-Jul-19 20:30N 36°17' E 014°40'11 3.4
2018-Jul-19 17:17N 36°28' E 014°45'1334.1
2018-Jul-19 16:54N 36°15' E 014°39'1334.1
2018-Jul-19 16:30N 36°02' E 014°34'9 4.4
2018-Jul-19 14:33N 35°54' E 014°31'114.7
2018-Jul-19 14:30N 35°55' E 014°32'3734.9
2018-Jul-19 13:26N 36°30' E 014°46'14 1.5
2018-Jul-19 04:04N 36°17' E 014°40'227.3
2018-Jul-19 04:00N 36°15' E 014°39'1427.5
2018-Jul-19 03:30N 36°02' E 014°35'8 1.4
2018-Jul-18 21:28N 35°54' E 014°31'1225.5
2018-Jul-18 21:00N 36°05' E 014°37'1 0.1
2018-Jul-18 16:58N 36°05' E 014°36'13 7.1
2018-Jul-18 15:07N 35°53' E 014°30'0 0.0
2018-Jul-18 14:55N 35°53' E 014°30'0 0.0
2018-Jul-18 14:25N 35°53' E 014°30'0 0.0
2018-Jul-18 13:13N 35°53' E 014°30'0 0.0
2018-Jul-18 12:55N 35°53' E 014°30'1 0.4
2018-Jul-18 09:26N 35°54' E 014°31'13 1.1
2018-Jul-17 21:10N 36°07' E 014°32'527.8
2018-Jul-17 21:00N 36°12' E 014°32'1428.1
2018-Jul-17 20:30N 36°25' E 014°33'7 2.4
2018-Jul-17 17:37N 36°30' E 014°40'432.3
2018-Jul-17 17:30N 36°27' E 014°37'9 0.8
2018-Jul-17 05:21N 36°18' E 014°39'1131.0
2018-Jul-17 05:00N 36°08' E 014°35'14 1.9
2018-Jul-16 21:20N 35°54' E 014°31'925.6
2018-Jul-16 21:00N 36°02' E 014°35'1529.4
2018-Jul-16 20:29N 36°17' E 014°40'  
2018-Jul-14 04:25N 36°31' E 014°45'1431.6
2018-Jul-14 03:59N 36°18' E 014°40'1731.6
2018-Jul-14 03:27N 36°02' E 014°35'8 1.4
2018-Jul-13 21:22N 35°54' E 014°31'926.4
2018-Jul-13 21:00N 36°03' E 014°35'1529.3
2018-Jul-13 20:29N 36°17' E 014°40'1429.3
2018-Jul-13 20:00N 36°31' E 014°46'1 0.4
2018-Jul-13 17:40N 36°31' E 014°47'532.3
2018-Jul-13 17:30N 36°26' E 014°45'1932.5
2018-Jul-13 16:55N 36°08' E 014°37'15 2.0
2018-Jul-13 09:18N 35°54' E 014°31'825.1
2018-Jul-13 09:00N 36°01' E 014°34'1632.8
2018-Jul-13 08:30N 36°17' E 014°41'13 4.8
2018-Jul-13 05:48N 36°29' E 014°46'1031.1
2018-Jul-13 05:28N 36°19' E 014°42'1531.3
2018-Jul-13 05:00N 36°05' E 014°36'12 1.6
2018-Jul-12 21:21N 35°54' E 014°31'926.5
2018-Jul-12 21:00N 36°03' E 014°35'1529.9
2018-Jul-12 20:30N 36°17' E 014°41'1428.6
2018-Jul-12 20:00N 36°30' E 014°46'4 1.7
2018-Jul-12 17:37N 36°34' E 014°48'1533.3
2018-Jul-12 17:10N 36°20' E 014°42'633.1
2018-Jul-12 16:58N 36°14' E 014°40'1533.3
2018-Jul-12 16:30N 35°59' E 014°34'7 3.3
2018-Jul-12 14:21N 35°53' E 014°30'410.2
2018-Jul-12 14:00N 35°56' E 014°33'1933.7
2018-Jul-12 13:26N 36°15' E 014°40'1534.7
2018-Jul-12 13:00N 36°29' E 014°46'24 2.6
2018-Jul-12 03:28N 36°05' E 014°36'  

Dump ship's entire track history